logo
Search for airport 
image banner adimage banner adimage banner ad
image banner ad

SVYL - Los Malabarez

Located in Zulia, Venezuela

ICAO - , IATA -

Data provided by Airmate  

General information

Coordinates: N9°6'50" W72°28'29"
Elevation is 98 feet MSL.
Magnetic variation is -9° East
View others Airports in Zulia

Operational data

Special qualification required
Current time UTC:
Current local time:
Weather at : - ( 0 km )
METAR: KQFX 191510Z AUTO 18001KT 9999 CLR 23/18 A2975 RMK A02 TSNO
View NOTAMs / SUP AIP / TFR affecting this airport [VIEW]
Communications frequencies: [VIEW]

Runways:

Airport contact information

Address: Zulia Venezuela

Satellite view of SVYL